createdAt,value
2022-08-17T00:00:49.327Z,19.88
2022-08-17T00:15:22.973Z,19.70
2022-08-17T00:30:23.110Z,19.30
2022-08-17T00:45:24.151Z,19.12
2022-08-17T01:00:22.866Z,18.98
2022-08-17T01:15:23.073Z,19.00
2022-08-17T01:30:58.541Z,18.10
2022-08-17T01:45:22.944Z,18.62
2022-08-17T02:00:23.004Z,18.40
2022-08-17T02:15:22.906Z,18.33
2022-08-17T02:30:59.308Z,18.30
2022-08-17T02:45:23.177Z,18.02
2022-08-17T03:00:22.968Z,18.02
2022-08-17T03:15:22.925Z,17.80
2022-08-17T03:30:23.203Z,18.02
2022-08-17T03:45:23.271Z,17.75
2022-08-17T04:00:23.905Z,17.67
2022-08-17T04:15:23.364Z,17.67
2022-08-17T04:30:23.263Z,17.53
2022-08-17T04:45:23.356Z,17.30
2022-08-17T05:00:23.524Z,17.58
2022-08-17T05:15:23.422Z,17.70
2022-08-17T05:30:23.756Z,17.85
2022-08-17T05:45:32.075Z,17.83
2022-08-17T06:00:30.054Z,18.02
2022-08-17T06:15:23.508Z,18.50
2022-08-17T06:30:23.491Z,19.40
2022-08-17T06:45:23.471Z,20.00
2022-08-17T07:00:23.571Z,21.10
2022-08-17T07:15:23.644Z,22.35
2022-08-17T07:30:23.595Z,22.45
2022-08-17T07:45:23.649Z,21.98
2022-08-17T08:00:26.689Z,22.07
2022-08-17T08:15:23.671Z,22.52
2022-08-17T08:30:23.577Z,22.47
2022-08-17T08:45:23.749Z,22.05
2022-08-17T09:00:23.424Z,21.73
2022-08-17T09:15:24.236Z,21.92
2022-08-17T09:30:23.867Z,22.25
2022-08-17T09:45:23.833Z,22.40
2022-08-17T10:00:26.040Z,22.67
2022-08-17T10:15:32.853Z,22.90
2022-08-17T10:30:33.527Z,23.53
2022-08-17T10:45:32.881Z,23.80
2022-08-17T11:00:33.047Z,24.35
2022-08-17T11:15:22.972Z,24.45
2022-08-17T11:30:22.890Z,24.53
2022-08-17T11:45:32.589Z,24.30
2022-08-17T12:00:22.987Z,24.07
2022-08-17T12:15:23.073Z,24.77
2022-08-17T12:30:23.025Z,25.50
2022-08-17T12:45:23.022Z,25.55
2022-08-17T13:00:23.261Z,26.15
2022-08-17T13:15:23.108Z,26.73
2022-08-17T13:30:23.062Z,27.17
2022-08-17T13:45:35.344Z,27.17
2022-08-17T14:00:23.069Z,27.70
2022-08-17T14:15:23.081Z,27.90
2022-08-17T14:30:23.231Z,28.05
2022-08-17T14:45:30.389Z,28.35
2022-08-17T15:00:23.216Z,28.17
2022-08-17T15:15:23.217Z,28.60
2022-08-17T15:30:23.773Z,28.90
2022-08-17T15:45:23.766Z,29.07
2022-08-17T16:00:25.979Z,28.20
2022-08-17T16:15:23.347Z,28.43
2022-08-17T16:30:23.486Z,28.05
2022-08-17T16:45:23.459Z,27.90
2022-08-17T17:00:25.053Z,27.37
2022-08-17T17:15:23.464Z,26.88
2022-08-17T17:30:23.674Z,26.67
2022-08-17T17:45:23.414Z,26.10
2022-08-17T18:00:23.457Z,26.10
2022-08-17T18:15:24.865Z,25.52
2022-08-17T18:30:23.653Z,25.33
2022-08-17T18:45:23.535Z,25.07
2022-08-17T19:00:24.592Z,24.90
2022-08-17T19:15:23.663Z,25.00
2022-08-17T19:30:23.739Z,24.42
2022-08-17T19:45:23.751Z,24.30
2022-08-17T20:00:23.873Z,24.27
2022-08-17T20:15:23.815Z,23.80
2022-08-17T20:30:23.641Z,23.55
2022-08-17T20:45:23.744Z,23.42
2022-08-17T21:00:23.762Z,23.53
2022-08-17T21:15:23.780Z,23.40
2022-08-17T21:30:24.516Z,23.45
2022-08-17T21:45:32.870Z,22.90
2022-08-17T22:00:44.995Z,22.20
2022-08-17T22:15:22.869Z,22.33
2022-08-17T22:30:23.163Z,21.80
2022-08-17T22:45:23.134Z,21.38
2022-08-17T23:00:24.210Z,21.17
2022-08-17T23:15:23.233Z,20.92
2022-08-17T23:30:23.148Z,21.00
2022-08-17T23:45:23.120Z,20.52
